createdAt,value
2023-03-10T00:01:20.026Z,78.20
2023-03-10T00:03:48.111Z,78.73
2023-03-10T00:06:17.538Z,78.73
2023-03-10T00:08:45.713Z,77.72
2023-03-10T00:11:13.852Z,78.52
2023-03-10T00:13:42.177Z,80.19
2023-03-10T00:16:11.385Z,78.52
2023-03-10T00:18:39.459Z,79.08
2023-03-10T00:21:07.644Z,78.96
2023-03-10T00:23:37.440Z,77.36
2023-03-10T00:26:06.019Z,77.28
2023-03-10T00:28:34.093Z,79.02
2023-03-10T00:31:03.379Z,79.29
2023-03-10T00:33:32.447Z,79.20
2023-03-10T00:36:14.864Z,80.82
2023-03-10T00:38:43.346Z,83.00
2023-03-10T00:41:15.668Z,82.82
2023-03-10T00:43:43.913Z,85.70
2023-03-10T00:46:15.161Z,84.05
2023-03-10T00:48:43.236Z,83.99
2023-03-10T00:51:11.126Z,84.02
2023-03-10T00:53:40.070Z,85.18
2023-03-10T00:56:18.850Z,85.46
2023-03-10T00:58:47.198Z,85.31
2023-03-10T01:01:17.237Z,85.55
2023-03-10T01:03:45.204Z,85.75
2023-03-10T01:06:13.556Z,86.66
2023-03-10T01:08:41.422Z,87.65
2023-03-10T01:11:09.507Z,86.93
2023-03-10T01:13:38.783Z,87.33
2023-03-10T01:16:08.746Z,88.53
2023-03-10T01:18:36.717Z,87.32
2023-03-10T01:21:05.219Z,88.94
2023-03-10T01:23:33.077Z,88.01
2023-03-10T01:26:01.053Z,87.39
2023-03-10T01:28:28.969Z,89.34
2023-03-10T01:30:56.938Z,90.29
2023-03-10T01:33:24.804Z,85.06
2023-03-10T01:35:52.773Z,81.60
2023-03-10T01:38:20.788Z,78.91
2023-03-10T01:40:50.019Z,78.33
2023-03-10T01:43:18.875Z,75.58
2023-03-10T01:45:46.729Z,75.42
2023-03-10T01:48:15.793Z,74.38
2023-03-10T01:50:44.288Z,73.25
2023-03-10T01:53:12.116Z,71.88
2023-03-10T01:55:42.921Z,72.44
2023-03-10T01:58:12.533Z,72.47
2023-03-10T02:00:40.408Z,72.42
2023-03-10T02:03:14.096Z,72.84
2023-03-10T02:05:47.940Z,73.30
2023-03-10T02:08:16.447Z,73.55
2023-03-10T02:10:44.391Z,74.61
2023-03-10T02:13:12.693Z,74.97
2023-03-10T02:15:40.816Z,75.47
2023-03-10T02:18:09.861Z,75.56
2023-03-10T02:20:42.292Z,76.77
2023-03-10T02:23:10.630Z,76.35
2023-03-10T02:25:48.240Z,76.86
2023-03-10T02:28:16.210Z,77.13
2023-03-10T02:30:49.434Z,78.07
2023-03-10T02:33:23.016Z,77.53
2023-03-10T02:35:51.017Z,78.27
2023-03-10T02:38:19.061Z,78.26
2023-03-10T02:40:51.458Z,78.49
2023-03-10T02:43:22.676Z,79.01
2023-03-10T02:45:50.748Z,79.93
2023-03-10T02:48:28.376Z,80.31
2023-03-10T02:50:57.102Z,81.10
2023-03-10T02:53:26.859Z,80.35
2023-03-10T02:55:56.415Z,82.06
2023-03-10T02:58:25.096Z,83.13
2023-03-10T03:00:53.149Z,84.82
2023-03-10T03:03:21.707Z,86.77
2023-03-10T03:05:50.624Z,87.47
2023-03-10T03:08:18.832Z,91.78
2023-03-10T03:10:46.959Z,95.58
2023-03-10T03:13:14.889Z,97.16
2023-03-10T03:15:42.770Z,98.21
2023-03-10T03:18:10.650Z,100.00
2023-03-10T03:20:39.117Z,100.00
2023-03-10T03:23:07.069Z,100.00
2023-03-10T03:25:37.103Z,100.00
2023-03-10T03:28:05.911Z,100.00
2023-03-10T03:30:34.504Z,100.00
2023-03-10T03:33:03.517Z,100.00
2023-03-10T03:35:33.905Z,100.00
2023-03-10T03:38:02.003Z,100.00
2023-03-10T03:40:34.839Z,100.00
2023-03-10T03:43:02.787Z,100.00
2023-03-10T03:45:31.297Z,100.00
2023-03-10T03:47:59.650Z,100.00
2023-03-10T03:50:27.645Z,100.00
2023-03-10T03:52:55.591Z,100.00
2023-03-10T03:55:23.656Z,100.00
2023-03-10T03:57:51.566Z,100.00
2023-03-10T04:00:21.649Z,100.00
2023-03-10T04:02:49.703Z,100.00
2023-03-10T04:05:17.725Z,100.00
2023-03-10T04:07:45.706Z,100.00
2023-03-10T04:10:15.004Z,100.00
2023-03-10T04:12:42.824Z,100.00
2023-03-10T04:15:11.102Z,100.00
2023-03-10T04:17:39.097Z,100.00
2023-03-10T04:20:08.532Z,100.00
2023-03-10T04:22:37.115Z,100.00
2023-03-10T04:25:05.568Z,100.00
2023-03-10T04:27:33.583Z,100.00
2023-03-10T04:30:01.440Z,100.00
2023-03-10T04:32:29.384Z,100.00
2023-03-10T04:34:57.498Z,100.00
2023-03-10T04:37:25.320Z,100.00
2023-03-10T04:39:53.164Z,100.00
2023-03-10T04:42:21.060Z,100.00
2023-03-10T04:44:49.044Z,100.00
2023-03-10T04:47:16.909Z,100.00
2023-03-10T04:49:44.913Z,100.00
2023-03-10T04:52:12.810Z,100.00
2023-03-10T04:54:40.689Z,100.00
2023-03-10T04:57:08.566Z,100.00
2023-03-10T04:59:36.499Z,100.00
2023-03-10T05:02:04.584Z,100.00
2023-03-10T05:04:32.545Z,100.00
2023-03-10T05:07:00.534Z,100.00
2023-03-10T05:09:28.526Z,100.00
2023-03-10T05:11:56.354Z,100.00
2023-03-10T05:14:24.163Z,100.00
2023-03-10T05:16:52.000Z,100.00
2023-03-10T05:19:19.895Z,100.00
2023-03-10T05:21:47.785Z,100.00
2023-03-10T05:24:15.792Z,100.00
2023-03-10T05:26:43.677Z,100.00
2023-03-10T05:29:11.759Z,100.00
2023-03-10T05:31:39.783Z,100.00
2023-03-10T05:34:07.644Z,100.00
2023-03-10T05:36:35.488Z,100.00
2023-03-10T05:39:03.580Z,100.00
2023-03-10T05:41:31.378Z,100.00
2023-03-10T05:43:59.161Z,100.00
2023-03-10T05:46:27.247Z,100.00
2023-03-10T05:48:58.539Z,100.00
2023-03-10T05:51:26.459Z,100.00
2023-03-10T05:53:54.395Z,100.00
2023-03-10T05:56:25.306Z,100.00
2023-03-10T05:58:53.278Z,100.00
2023-03-10T06:01:21.265Z,100.00
2023-03-10T06:03:49.168Z,100.00
2023-03-10T06:06:17.297Z,100.00
2023-03-10T06:08:45.158Z,100.00
2023-03-10T06:11:13.707Z,100.00
2023-03-10T06:13:41.935Z,100.00
2023-03-10T06:16:09.875Z,100.00
2023-03-10T06:18:37.732Z,100.00
2023-03-10T06:21:07.415Z,100.00
2023-03-10T06:23:35.433Z,100.00
2023-03-10T06:26:08.126Z,100.00
2023-03-10T06:28:38.445Z,100.00
2023-03-10T06:31:15.868Z,100.00
2023-03-10T06:33:44.138Z,100.00
2023-03-10T06:36:13.052Z,100.00
2023-03-10T06:38:41.047Z,100.00
2023-03-10T06:41:09.240Z,100.00
2023-03-10T06:43:37.249Z,100.00
2023-03-10T06:46:07.112Z,100.00
2023-03-10T06:48:35.471Z,100.00
2023-03-10T06:51:03.496Z,100.00
2023-03-10T06:53:31.379Z,100.00
2023-03-10T06:55:59.912Z,100.00
2023-03-10T06:58:28.326Z,100.00
2023-03-10T07:00:56.327Z,100.00
2023-03-10T07:03:26.363Z,100.00
2023-03-10T07:05:54.604Z,100.00
2023-03-10T07:08:22.599Z,100.00
2023-03-10T07:10:51.837Z,100.00
2023-03-10T07:13:20.024Z,100.00
2023-03-10T07:15:48.245Z,100.00
2023-03-10T07:18:16.324Z,100.00
2023-03-10T07:20:46.399Z,100.00
2023-03-10T07:23:14.536Z,100.00
2023-03-10T07:25:42.475Z,100.00
2023-03-10T07:28:10.593Z,100.00
2023-03-10T07:30:39.825Z,100.00
2023-03-10T07:33:07.809Z,100.00
2023-03-10T07:35:37.073Z,100.00
2023-03-10T07:38:06.120Z,100.00
2023-03-10T07:40:34.363Z,100.00
2023-03-10T07:43:02.225Z,100.00
2023-03-10T07:45:32.262Z,100.00
2023-03-10T07:48:00.335Z,100.00
2023-03-10T07:50:28.546Z,100.00
2023-03-10T07:52:57.393Z,100.00
2023-03-10T07:55:26.265Z,100.00
2023-03-10T07:57:54.488Z,100.00
2023-03-10T08:00:23.036Z,100.00
2023-03-10T08:02:51.227Z,100.00
2023-03-10T08:05:19.812Z,100.00
2023-03-10T08:07:55.876Z,100.00
2023-03-10T08:10:24.320Z,100.00
2023-03-10T08:12:52.580Z,100.00
2023-03-10T08:15:20.538Z,100.00
2023-03-10T08:17:49.284Z,100.00
2023-03-10T08:20:18.210Z,100.00
2023-03-10T08:22:46.580Z,100.00
2023-03-10T08:25:15.212Z,100.00
2023-03-10T08:27:43.765Z,100.00
2023-03-10T08:30:12.585Z,100.00
2023-03-10T08:32:41.364Z,100.00
2023-03-10T08:35:10.190Z,100.00
2023-03-10T08:37:38.698Z,100.00
2023-03-10T08:40:09.450Z,100.00
2023-03-10T08:42:38.464Z,100.00
2023-03-10T08:45:08.700Z,100.00
2023-03-10T08:47:37.708Z,100.00
2023-03-10T08:50:07.251Z,100.00
2023-03-10T08:52:35.421Z,100.00
2023-03-10T08:55:06.395Z,100.00
2023-03-10T08:57:35.221Z,100.00
2023-03-10T09:00:04.020Z,100.00
2023-03-10T09:02:32.091Z,100.00
2023-03-10T09:05:00.429Z,100.00
2023-03-10T09:07:28.365Z,100.00
2023-03-10T09:09:56.585Z,100.00
2023-03-10T09:12:24.832Z,100.00
2023-03-10T09:14:53.734Z,100.00
2023-03-10T09:17:21.989Z,100.00
2023-03-10T09:19:50.135Z,100.00
2023-03-10T09:22:18.178Z,100.00
2023-03-10T09:24:46.395Z,100.00
2023-03-10T09:27:14.413Z,100.00
2023-03-10T09:29:43.789Z,100.00
2023-03-10T09:32:12.462Z,100.00
2023-03-10T09:34:40.939Z,100.00
2023-03-10T09:37:09.279Z,99.92
2023-03-10T09:39:38.161Z,98.77
2023-03-10T09:42:12.007Z,92.29
2023-03-10T09:45:01.804Z,91.21
2023-03-10T09:47:55.763Z,89.31
2023-03-10T09:50:39.333Z,90.87
2023-03-10T09:53:27.297Z,96.84
2023-03-10T09:55:55.643Z,99.66
2023-03-10T09:58:50.287Z,99.94
2023-03-10T10:01:23.721Z,100.00
2023-03-10T10:04:13.817Z,100.00
2023-03-10T10:06:44.625Z,100.00
2023-03-10T10:09:19.062Z,100.00
2023-03-10T10:11:47.374Z,100.00
2023-03-10T10:14:29.916Z,100.00
2023-03-10T10:17:32.482Z,100.00
2023-03-10T10:20:02.313Z,100.00
2023-03-10T10:22:39.203Z,100.00
2023-03-10T10:25:10.624Z,100.00
2023-03-10T10:27:39.087Z,100.00
2023-03-10T10:30:35.228Z,99.11
2023-03-10T10:33:08.200Z,100.00
2023-03-10T10:36:02.554Z,100.00
2023-03-10T10:38:31.824Z,100.00
2023-03-10T10:41:08.279Z,100.00
2023-03-10T10:43:44.818Z,100.00
2023-03-10T10:46:13.995Z,100.00
2023-03-10T10:48:47.663Z,97.36
2023-03-10T10:51:30.330Z,100.00
2023-03-10T10:53:59.395Z,100.00
2023-03-10T10:56:29.979Z,100.00
2023-03-10T10:59:21.171Z,100.00
2023-03-10T11:01:50.615Z,100.00
2023-03-10T11:04:18.737Z,100.00
2023-03-10T11:06:46.970Z,100.00
2023-03-10T11:09:25.376Z,100.00
2023-03-10T11:12:02.174Z,100.00
2023-03-10T11:14:53.889Z,99.82
2023-03-10T11:17:54.696Z,100.00
2023-03-10T11:20:52.019Z,100.00
2023-03-10T11:23:38.472Z,100.00
2023-03-10T11:26:23.455Z,99.09
2023-03-10T11:28:58.487Z,98.27
2023-03-10T11:31:45.676Z,99.91
2023-03-10T11:34:32.601Z,100.00
2023-03-10T11:37:24.271Z,98.13
2023-03-10T11:40:26.372Z,99.37
2023-03-10T11:43:01.106Z,98.19
2023-03-10T11:45:31.022Z,100.00
2023-03-10T11:48:29.725Z,100.00
2023-03-10T11:51:02.102Z,100.00
2023-03-10T11:53:40.550Z,100.00
2023-03-10T11:56:10.311Z,99.41
2023-03-10T11:58:59.886Z,100.00
2023-03-10T12:01:48.586Z,100.00
2023-03-10T12:04:23.739Z,100.00
2023-03-10T12:07:33.818Z,100.00
2023-03-10T12:10:14.806Z,100.00
2023-03-10T12:12:45.562Z,99.45
2023-03-10T12:15:23.510Z,100.00
2023-03-10T12:17:52.278Z,100.00
2023-03-10T12:20:20.352Z,98.20
2023-03-10T12:22:57.833Z,100.00
2023-03-10T12:25:31.724Z,99.95
2023-03-10T12:28:26.447Z,100.00
2023-03-10T12:31:01.542Z,99.25
2023-03-10T12:33:32.963Z,99.01
2023-03-10T12:36:04.197Z,98.83
2023-03-10T12:39:25.271Z,98.14
2023-03-10T12:42:03.140Z,99.57
2023-03-10T12:44:53.150Z,100.00
2023-03-10T12:47:37.479Z,100.00
2023-03-10T12:50:28.483Z,100.00
2023-03-10T12:53:26.161Z,100.00
2023-03-10T12:56:27.339Z,100.00
2023-03-10T12:59:21.931Z,100.00
2023-03-10T13:01:55.861Z,100.00
2023-03-10T13:04:24.972Z,100.00
2023-03-10T13:06:52.989Z,100.00
2023-03-10T13:09:34.711Z,100.00
2023-03-10T13:12:06.210Z,100.00
2023-03-10T13:14:39.629Z,100.00
2023-03-10T13:17:08.456Z,100.00
2023-03-10T13:19:37.950Z,100.00
2023-03-10T13:22:06.271Z,100.00
2023-03-10T13:24:37.336Z,100.00
2023-03-10T13:27:12.900Z,100.00
2023-03-10T13:29:41.764Z,100.00
2023-03-10T13:32:19.701Z,100.00
2023-03-10T13:34:47.939Z,100.00
2023-03-10T13:37:16.182Z,100.00
2023-03-10T13:39:44.693Z,100.00
2023-03-10T13:42:40.737Z,100.00
2023-03-10T13:45:35.908Z,100.00
2023-03-10T13:48:07.703Z,100.00
2023-03-10T13:50:37.024Z,100.00
2023-03-10T13:53:05.848Z,100.00
2023-03-10T13:55:40.873Z,100.00
2023-03-10T13:58:09.859Z,100.00
2023-03-10T14:00:38.665Z,100.00
2023-03-10T14:03:09.118Z,100.00
2023-03-10T14:05:43.444Z,100.00
2023-03-10T14:08:32.529Z,100.00
2023-03-10T14:11:31.244Z,100.00
2023-03-10T14:13:59.786Z,100.00
2023-03-10T14:16:49.763Z,100.00
2023-03-10T14:19:40.705Z,100.00
2023-03-10T14:22:29.958Z,100.00
2023-03-10T14:24:59.308Z,100.00
2023-03-10T14:27:28.382Z,100.00
2023-03-10T14:30:09.274Z,100.00
2023-03-10T14:32:37.507Z,100.00
2023-03-10T14:35:11.434Z,100.00
2023-03-10T14:37:39.703Z,100.00
2023-03-10T14:40:09.372Z,100.00
2023-03-10T14:42:37.426Z,100.00
2023-03-10T14:45:30.592Z,100.00
2023-03-10T14:48:01.766Z,100.00
2023-03-10T14:50:30.545Z,100.00
2023-03-10T14:53:02.170Z,100.00
2023-03-10T14:55:30.537Z,100.00
2023-03-10T14:58:01.087Z,100.00
2023-03-10T15:00:29.999Z,100.00
2023-03-10T15:02:58.382Z,100.00
2023-03-10T15:05:45.113Z,100.00
2023-03-10T15:08:15.766Z,100.00
2023-03-10T15:10:45.024Z,100.00
2023-03-10T15:13:15.221Z,100.00
2023-03-10T15:15:46.030Z,100.00
2023-03-10T15:18:19.220Z,100.00
2023-03-10T15:20:47.539Z,100.00
2023-03-10T15:23:18.092Z,100.00
2023-03-10T15:25:47.353Z,100.00
2023-03-10T15:28:15.890Z,100.00
2023-03-10T15:30:43.842Z,100.00
2023-03-10T15:33:12.531Z,100.00
2023-03-10T15:35:41.224Z,100.00
2023-03-10T15:38:10.293Z,100.00
2023-03-10T15:40:40.115Z,100.00
2023-03-10T15:43:08.429Z,100.00
2023-03-10T15:45:40.249Z,100.00
2023-03-10T15:48:09.049Z,99.06
2023-03-10T15:50:37.445Z,99.40
2023-03-10T15:53:05.610Z,98.59
2023-03-10T15:55:33.766Z,95.65
2023-03-10T15:58:01.978Z,90.02
2023-03-10T16:00:30.222Z,89.82
2023-03-10T16:02:58.325Z,90.85
2023-03-10T16:05:26.457Z,92.90
2023-03-10T16:07:54.565Z,92.70
2023-03-10T16:10:23.020Z,96.58
2023-03-10T16:12:51.251Z,94.68
2023-03-10T16:15:19.232Z,93.09
2023-03-10T16:17:47.635Z,91.55
2023-03-10T16:20:18.179Z,94.95
2023-03-10T16:22:46.640Z,91.58
2023-03-10T16:25:19.647Z,90.05
2023-03-10T16:27:47.879Z,90.32
2023-03-10T16:30:16.950Z,88.46
2023-03-10T16:32:48.781Z,89.37
2023-03-10T16:35:17.857Z,87.74
2023-03-10T16:37:45.990Z,90.82
2023-03-10T16:40:14.710Z,88.92
2023-03-10T16:42:46.860Z,87.28
2023-03-10T16:45:15.240Z,86.87
2023-03-10T16:47:45.467Z,88.08
2023-03-10T16:50:15.849Z,88.59
2023-03-10T16:52:44.371Z,89.82
2023-03-10T16:55:18.523Z,87.71
2023-03-10T16:57:47.248Z,86.72
2023-03-10T17:00:16.142Z,86.62
2023-03-10T17:02:44.219Z,87.86
2023-03-10T17:05:15.311Z,88.05
2023-03-10T17:07:55.153Z,88.61
2023-03-10T17:10:24.119Z,91.18
2023-03-10T17:12:52.684Z,98.31
2023-03-10T17:15:21.011Z,100.00
2023-03-10T17:17:49.352Z,100.00
2023-03-10T17:20:19.777Z,100.00
2023-03-10T17:22:48.198Z,100.00
2023-03-10T17:25:16.411Z,100.00
2023-03-10T17:27:45.052Z,100.00
2023-03-10T17:30:13.927Z,100.00
2023-03-10T17:32:42.995Z,100.00
2023-03-10T17:35:11.730Z,100.00
2023-03-10T17:37:40.020Z,100.00
2023-03-10T17:40:10.741Z,100.00
2023-03-10T17:42:40.141Z,100.00
2023-03-10T17:45:09.148Z,100.00
2023-03-10T17:47:37.232Z,100.00
2023-03-10T17:50:05.656Z,100.00
2023-03-10T17:52:33.768Z,100.00
2023-03-10T17:55:02.542Z,100.00
2023-03-10T17:57:31.386Z,100.00
2023-03-10T17:59:59.394Z,100.00
2023-03-10T18:02:27.685Z,100.00
2023-03-10T18:04:55.947Z,100.00
2023-03-10T18:07:24.229Z,100.00
2023-03-10T18:09:52.226Z,100.00
2023-03-10T18:12:20.758Z,100.00
2023-03-10T18:14:49.914Z,100.00
2023-03-10T18:17:18.040Z,100.00
2023-03-10T18:19:46.185Z,100.00
2023-03-10T18:22:15.250Z,100.00
2023-03-10T18:24:43.308Z,100.00
2023-03-10T18:27:11.486Z,100.00
2023-03-10T18:29:39.466Z,100.00
2023-03-10T18:32:07.609Z,100.00
2023-03-10T18:34:35.669Z,100.00
2023-03-10T18:37:03.779Z,100.00
2023-03-10T18:39:31.741Z,100.00
2023-03-10T18:41:59.869Z,100.00
2023-03-10T18:44:28.006Z,100.00
2023-03-10T18:46:56.155Z,100.00
2023-03-10T18:49:24.294Z,100.00
2023-03-10T18:51:52.346Z,100.00
2023-03-10T18:54:20.432Z,100.00
2023-03-10T18:56:48.531Z,100.00
2023-03-10T18:59:16.570Z,100.00
2023-03-10T19:01:44.862Z,100.00
2023-03-10T19:04:12.984Z,100.00
2023-03-10T19:06:41.028Z,100.00
2023-03-10T19:09:10.034Z,100.00
2023-03-10T19:11:38.875Z,100.00
2023-03-10T19:14:07.869Z,100.00
2023-03-10T19:16:41.038Z,100.00
2023-03-10T19:19:09.091Z,100.00
2023-03-10T19:21:40.233Z,100.00
2023-03-10T19:24:08.747Z,100.00
2023-03-10T19:26:36.873Z,100.00
2023-03-10T19:29:05.207Z,100.00
2023-03-10T19:31:47.023Z,99.11
2023-03-10T19:34:15.831Z,99.13
2023-03-10T19:36:43.932Z,99.72
2023-03-10T19:39:12.140Z,97.51
2023-03-10T19:41:40.202Z,95.16
2023-03-10T19:44:08.470Z,93.14
2023-03-10T19:46:36.579Z,92.59
2023-03-10T19:49:06.623Z,92.12
2023-03-10T19:51:34.912Z,89.66
2023-03-10T19:54:04.937Z,89.12
2023-03-10T19:56:33.091Z,91.07
2023-03-10T19:59:01.209Z,89.58
2023-03-10T20:01:30.157Z,87.91
2023-03-10T20:04:00.509Z,87.42
2023-03-10T20:06:29.029Z,86.82
2023-03-10T20:08:58.962Z,86.28
2023-03-10T20:11:27.482Z,85.06
2023-03-10T20:13:56.177Z,84.27
2023-03-10T20:16:25.246Z,85.51
2023-03-10T20:18:53.476Z,84.83
2023-03-10T20:21:21.718Z,86.93
2023-03-10T20:23:50.004Z,86.76
2023-03-10T20:26:18.271Z,87.02
2023-03-10T20:28:46.771Z,87.38
2023-03-10T20:31:19.818Z,88.27
2023-03-10T20:33:48.106Z,91.35
2023-03-10T20:36:17.113Z,91.82
2023-03-10T20:38:45.384Z,89.78
2023-03-10T20:41:14.435Z,86.86
2023-03-10T20:43:43.589Z,87.98
2023-03-10T20:46:12.320Z,87.25
2023-03-10T20:48:43.808Z,87.14
2023-03-10T20:51:14.944Z,86.43
2023-03-10T20:53:44.019Z,86.10
2023-03-10T20:56:12.551Z,84.36
2023-03-10T20:58:40.766Z,81.93
2023-03-10T21:01:17.407Z,83.24
2023-03-10T21:03:45.826Z,82.57
2023-03-10T21:06:13.826Z,81.98
2023-03-10T21:08:42.287Z,81.33
2023-03-10T21:11:10.486Z,82.35
2023-03-10T21:13:38.824Z,80.75
2023-03-10T21:16:08.000Z,82.00
2023-03-10T21:18:36.354Z,81.68
2023-03-10T21:21:08.503Z,81.71
2023-03-10T21:23:37.582Z,81.44
2023-03-10T21:26:13.036Z,82.94
2023-03-10T21:28:41.365Z,82.29
2023-03-10T21:31:09.589Z,83.21
2023-03-10T21:33:37.699Z,82.79
2023-03-10T21:36:06.227Z,81.83
2023-03-10T21:38:34.378Z,82.21
2023-03-10T21:41:02.726Z,81.96
2023-03-10T21:43:31.205Z,82.11
2023-03-10T21:45:59.299Z,82.67
2023-03-10T21:48:27.553Z,80.97
2023-03-10T21:50:55.720Z,82.43
2023-03-10T21:53:27.735Z,81.80
2023-03-10T21:55:55.945Z,83.11
2023-03-10T21:58:26.174Z,82.16
2023-03-10T22:00:56.149Z,82.42
2023-03-10T22:03:25.385Z,81.93
2023-03-10T22:05:53.657Z,80.84
2023-03-10T22:08:23.160Z,82.02
2023-03-10T22:10:51.618Z,81.44
2023-03-10T22:13:20.093Z,80.36
2023-03-10T22:15:48.680Z,80.60
2023-03-10T22:18:16.894Z,80.77
2023-03-10T22:20:45.221Z,82.19
2023-03-10T22:23:14.283Z,81.49
2023-03-10T22:25:42.543Z,81.52
2023-03-10T22:28:11.117Z,81.97
2023-03-10T22:30:39.489Z,81.57
2023-03-10T22:33:10.506Z,81.96
2023-03-10T22:35:38.894Z,81.87
2023-03-10T22:38:08.517Z,81.43
2023-03-10T22:40:36.696Z,82.72
2023-03-10T22:43:05.032Z,82.48
2023-03-10T22:45:33.581Z,82.39
2023-03-10T22:48:03.868Z,81.94
2023-03-10T22:50:34.538Z,82.34
2023-03-10T22:53:03.328Z,82.34
2023-03-10T22:55:37.281Z,83.03
2023-03-10T22:58:06.696Z,82.42
2023-03-10T23:00:35.270Z,81.36
2023-03-10T23:03:03.772Z,81.58
2023-03-10T23:05:32.026Z,81.86
2023-03-10T23:08:00.525Z,81.87
2023-03-10T23:10:30.489Z,82.05
2023-03-10T23:13:02.915Z,81.83
2023-03-10T23:15:33.114Z,83.56
2023-03-10T23:18:01.431Z,83.12
2023-03-10T23:20:31.680Z,82.51
2023-03-10T23:23:01.201Z,82.91
2023-03-10T23:25:37.044Z,84.43
2023-03-10T23:28:06.191Z,84.20
2023-03-10T23:30:34.973Z,84.74
2023-03-10T23:33:03.218Z,82.81
2023-03-10T23:35:33.102Z,83.96
2023-03-10T23:38:01.889Z,83.84
2023-03-10T23:40:30.588Z,82.55
2023-03-10T23:42:59.269Z,84.00
2023-03-10T23:45:28.617Z,83.66
2023-03-10T23:47:56.909Z,82.86
2023-03-10T23:50:34.192Z,83.58
2023-03-10T23:53:02.462Z,83.30
2023-03-10T23:55:32.258Z,83.57
2023-03-10T23:58:00.110Z,82.62
